EKSP

Vojens Skrydstrup Airport

Vojens, Denmark
METAR EKSP 150050Z 24004KT CAVOK 13/13 Q1013
Observed Flight Rules
Aug-15 @ 00:50 UTC (17 minutes ago) Visual Flight Rules
Wind Visibility Clouds
240° at 4 knots 10,000+ meters
  • Clear skies
Temperatures Readings
Current 13°C / 55°F
Dewpoint 13°C / 55°F
Humidity 100%
Altimeter 29.91" Hg
Pressure 1013 hPa
Elevation 40
METAR EKSP 150050Z 24004KT CAVOK 13/13 Q1013
Observed Flight Rules
Aug-15 @ 00:50 UTC
(17 minutes ago)
VFR
Wind Visibility
240° at 4 knots 10,000+ meters
Clouds
  • Clear skies
Temperature Dewpoint
13°C / 55°F 13°C / 55°F
Humidity Altimeter Pressure
100% 29.91" Hg 1013 hPa